Time;durP1;ratioP1;P1;durP2;ratioP2;P2;SDS_P1;SDS_P2;PMS_P1;PMS_P2;Temp;Humidity;BMP_temperature;BMP_pressure;BME280_temperature;BME280_humidity;BME280_pressure;Samples;Min_cycle;Max_cycle;Signal;HPM_P1;HPM_P2
2022/06/05 00:00:15;;;;;;;14.63;10.00;;;13.00;99.90;;;;;;5013279;28;20124;-74
2022/06/05 00:03:05;;;;;;;14.57;9.55;;;13.10;99.90;;;;;;5010329;28;20030;-74
2022/06/05 00:05:44;;;;;;;15.07;9.30;;;13.10;99.90;;;;;;5013293;28;20045;-74
2022/06/05 00:08:27;;;;;;;15.77;10.40;;;13.00;99.90;;;;;;5016210;28;20898;-74
2022/06/05 00:10:56;;;;;;;12.38;9.90;;;13.00;99.90;;;;;;5028802;28;20087;-74
2022/06/05 00:13:37;;;;;;;14.07;10.60;;;13.00;99.90;;;;;;5030490;28;20035;-74
2022/06/05 00:16:04;;;;;;;14.32;10.63;;;13.00;99.90;;;;;;5026140;28;20033;-74
2022/06/05 00:18:35;;;;;;;14.13;10.60;;;12.90;99.90;;;;;;5028495;28;20430;-74
2022/06/05 00:21:02;;;;;;;15.05;10.43;;;12.90;99.90;;;;;;4998634;28;20128;-74
2022/06/05 00:23:28;;;;;;;14.70;10.57;;;13.00;99.90;;;;;;5014287;28;20558;-74
2022/06/05 00:26:06;;;;;;;15.73;10.57;;;12.90;99.90;;;;;;5029950;28;20033;-74
2022/06/05 00:28:43;;;;;;;15.90;11.75;;;12.80;99.90;;;;;;5024592;28;20069;-74
2022/06/05 00:31:38;;;;;;;12.85;10.40;;;12.90;99.90;;;;;;5046726;28;20038;-74
2022/06/05 00:34:04;;;;;;;16.15;10.07;;;12.90;99.90;;;;;;4996750;28;20049;-74
2022/06/05 00:36:33;;;;;;;16.90;11.20;;;12.80;99.90;;;;;;4995731;28;20038;-74
2022/06/05 00:39:12;;;;;;;17.73;11.00;;;12.80;99.90;;;;;;5013303;28;20037;-74
2022/06/05 00:41:44;;;;;;;17.42;11.13;;;12.80;99.90;;;;;;4998347;28;20033;-74
2022/06/05 00:44:15;;;;;;;16.77;11.77;;;12.80;99.90;;;;;;5028609;28;20041;-74
2022/06/05 00:46:42;;;;;;;15.73;10.77;;;12.70;99.90;;;;;;5014352;28;20065;-74
2022/06/05 00:49:10;;;;;;;13.73;11.25;;;12.80;99.90;;;;;;5009792;28;20280;-74
2022/06/05 00:51:38;;;;;;;15.88;11.55;;;12.70;99.90;;;;;;5008533;28;20041;-74
2022/06/05 00:54:06;;;;;;;15.65;10.75;;;12.70;99.90;;;;;;5028571;28;20045;-74
2022/06/05 00:56:32;;;;;;;19.25;11.55;;;12.70;99.90;;;;;;5012792;28;20045;-74
2022/06/05 00:58:58;;;;;;;14.10;10.77;;;12.70;99.90;;;;;;5028709;28;20389;-73
2022/06/05 01:01:25;;;;;;;15.95;11.48;;;12.80;99.90;;;;;;5012446;28;20037;-74
2022/06/05 01:03:52;;;;;;;14.88;11.63;;;12.80;99.90;;;;;;5028820;28;20033;-74
2022/06/05 01:06:18;;;;;;;16.30;12.07;;;12.70;99.90;;;;;;5022905;28;20049;-74
2022/06/05 01:08:44;;;;;;;18.20;11.93;;;12.60;99.90;;;;;;4995813;28;20488;-74
2022/06/05 01:14:17;;;;;;;19.60;12.75;;;12.70;99.90;;;;;;5178832;27;20974;-71
2022/06/05 01:16:58;;;;;;;18.90;12.48;;;12.60;99.90;;;;;;5144602;27;20031;-71
2022/06/05 01:19:45;;;;;;;17.38;12.20;;;12.60;99.90;;;;;;5130396;27;20034;-72
2022/06/05 01:22:20;;;;;;;19.50;12.82;;;12.60;99.90;;;;;;5139658;27;20050;-71
2022/06/05 01:25:17;;;;;;;18.10;13.52;;;12.70;99.90;;;;;;5107984;27;20030;-71
2022/06/05 01:27:50;;;;;;;15.60;12.63;;;12.60;99.90;;;;;;5114414;27;20039;-71
2022/06/05 01:30:19;;;;;;;18.27;13.02;;;12.60;99.90;;;;;;5140885;27;20078;-71
2022/06/05 01:33:06;;;;;;;17.13;13.60;;;12.60;99.90;;;;;;5148395;27;20088;-71
2022/06/05 01:35:45;;;;;;;18.88;13.25;;;12.60;99.90;;;;;;5129980;27;20034;-71
2022/06/05 01:38:21;;;;;;;18.88;13.77;;;12.50;99.90;;;;;;5129074;27;20087;-71
2022/06/05 01:40:54;;;;;;;19.38;14.02;;;12.60;99.90;;;;;;5116758;27;20107;-71
2022/06/05 01:43:27;;;;;;;17.73;13.73;;;12.50;99.90;;;;;;5146894;27;20038;-71
2022/06/05 01:46:09;;;;;;;22.52;13.95;;;12.50;99.90;;;;;;5128772;27;20126;-71
2022/06/05 01:48:44;;;;;;;22.80;14.20;;;12.50;99.90;;;;;;5141887;27;20046;-71
2022/06/05 01:51:19;;;;;;;21.33;14.63;;;12.50;99.90;;;;;;5128881;27;20038;-71
2022/06/05 01:53:47;;;;;;;22.23;15.00;;;12.50;99.90;;;;;;5127759;27;20035;-71
2022/06/05 01:56:32;;;;;;;18.38;13.88;;;12.50;99.90;;;;;;5112684;27;20034;-71
2022/06/05 01:59:19;;;;;;;18.25;15.23;;;12.50;99.90;;;;;;5131560;27;20041;-71
2022/06/05 02:01:51;;;;;;;20.83;15.43;;;12.40;99.90;;;;;;5147560;27;20039;-71
2022/06/05 02:04:37;;;;;;;24.98;15.80;;;12.50;99.90;;;;;;5147307;27;20030;-71
2022/06/05 02:07:16;;;;;;;20.52;15.05;;;12.50;99.90;;;;;;5129956;27;20094;-71
2022/06/05 02:09:53;;;;;;;22.98;16.63;;;12.40;99.90;;;;;;5111571;27;20037;-71
2022/06/05 02:12:20;;;;;;;21.70;15.75;;;12.40;99.90;;;;;;5114253;27;20039;-71
2022/06/05 02:14:46;;;;;;;22.48;15.23;;;12.30;99.90;;;;;;5131969;27;20752;-72
2022/06/05 02:17:12;;;;;;;20.42;15.80;;;12.40;99.90;;;;;;5139702;27;20059;-71
2022/06/05 02:19:38;;;;;;;22.35;15.70;;;12.30;99.90;;;;;;5112494;27;20033;-71
2022/06/05 02:22:17;;;;;;;22.10;16.13;;;12.30;99.90;;;;;;5108917;27;20039;-71
2022/06/05 02:24:43;;;;;;;21.65;16.27;;;12.40;99.90;;;;;;5137008;27;20049;-71
2022/06/05 02:27:10;;;;;;;20.65;16.13;;;12.40;99.90;;;;;;5149163;27;20043;-71
2022/06/05 02:29:37;;;;;;;22.65;16.05;;;12.40;99.90;;;;;;5133569;27;20046;-73
2022/06/05 02:32:07;;;;;;;17.90;15.70;;;12.40;99.90;;;;;;5097464;27;20392;-71
2022/06/05 02:34:48;;;;;;;24.30;16.13;;;12.30;99.90;;;;;;5117941;27;20118;-71
2022/06/05 02:37:32;;;;;;;21.85;16.42;;;12.40;99.90;;;;;;5115133;27;20045;-72
2022/06/05 02:40:28;;;;;;;20.33;16.20;;;12.30;99.90;;;;;;5113225;27;20134;-71
2022/06/05 02:43:22;;;;;;;22.80;16.48;;;12.40;99.90;;;;;;5110625;27;20088;-72
2022/06/05 02:45:59;;;;;;;19.45;15.63;;;12.30;99.90;;;;;;5123952;27;20035;-71
2022/06/05 02:48:30;;;;;;;21.00;16.45;;;12.30;99.90;;;;;;5128886;27;21566;-71
2022/06/05 02:51:02;;;;;;;22.23;16.70;;;12.30;99.90;;;;;;5113592;27;20038;-71
2022/06/05 02:53:28;;;;;;;20.35;16.42;;;12.40;99.90;;;;;;5117036;27;20039;-71
2022/06/05 02:55:54;;;;;;;26.65;16.33;;;12.40;99.90;;;;;;5117055;27;20400;-72
2022/06/05 02:58:20;;;;;;;24.90;15.45;;;12.40;99.90;;;;;;5095679;27;20039;-71
2022/06/05 03:03:27;;;;;;;20.80;15.93;;;12.30;99.90;;;;;;5132123;27;20702;-71
2022/06/05 03:03:32;;;;;;;23.25;16.52;;;12.40;99.90;;;;;;5118098;27;20442;-71
2022/06/05 03:06:02;;;;;;;20.85;17.23;;;12.40;99.90;;;;;;5130037;27;20039;-71
2022/06/05 03:08:27;;;;;;;25.08;16.77;;;12.30;99.90;;;;;;5107440;27;20046;-71
2022/06/05 03:10:53;;;;;;;20.90;16.05;;;12.30;99.90;;;;;;5111718;27;20043;-71
2022/06/05 03:13:19;;;;;;;21.23;15.93;;;12.30;99.90;;;;;;5111102;27;20043;-71
2022/06/05 03:15:45;;;;;;;22.15;16.42;;;12.40;99.90;;;;;;5132273;27;20061;-72
2022/06/05 03:18:15;;;;;;;23.13;16.50;;;12.30;99.90;;;;;;5128642;27;20091;-71
2022/06/05 03:20:42;;;;;;;22.63;16.95;;;12.40;99.90;;;;;;5107780;27;20034;-71
2022/06/05 03:23:10;;;;;;;24.25;17.83;;;12.40;99.90;;;;;;5110878;27;20126;-72
2022/06/05 03:25:39;;;;;;;21.35;16.63;;;12.40;99.90;;;;;;5145694;27;20035;-71
2022/06/05 03:28:05;;;;;;;20.40;15.48;;;12.30;99.90;;;;;;5116024;27;20046;-71
2022/06/05 03:30:31;;;;;;;23.98;16.55;;;12.40;99.90;;;;;;5126432;27;20039;-71
2022/06/05 03:32:57;;;;;;;23.17;16.02;;;12.40;99.90;;;;;;5128625;27;20045;-71
2022/06/05 03:35:23;;;;;;;23.30;16.67;;;12.40;99.90;;;;;;5109390;27;20511;-71
2022/06/05 03:37:49;;;;;;;22.02;16.55;;;12.40;99.90;;;;;;5114692;27;20481;-71
2022/06/05 03:40:16;;;;;;;21.55;16.95;;;12.40;99.90;;;;;;5127321;27;20043;-72
2022/06/05 03:42:42;;;;;;;19.80;16.58;;;12.40;99.90;;;;;;5123526;27;20030;-71
2022/06/05 03:45:16;;;;;;;19.85;16.55;;;12.40;99.90;;;;;;5115412;27;20066;-72
2022/06/05 03:47:42;;;;;;;20.58;16.38;;;12.50;99.90;;;;;;5114339;27;20034;-71
2022/06/05 03:50:11;;;;;;;21.67;16.88;;;12.40;99.90;;;;;;5095264;27;20429;-71
2022/06/05 03:52:36;;;;;;;21.73;17.00;;;12.40;99.90;;;;;;5115835;27;20039;-71
2022/06/05 03:55:03;;;;;;;23.30;16.25;;;12.40;99.90;;;;;;5119188;27;20039;-71
2022/06/05 03:57:29;;;;;;;21.55;16.60;;;12.50;99.90;;;;;;5132050;27;20031;-71
2022/06/05 03:59:55;;;;;;;22.25;16.23;;;12.40;99.90;;;;;;5114375;27;20095;-71
2022/06/05 04:02:21;;;;;;;21.75;16.95;;;12.40;99.90;;;;;;5114031;27;20496;-71
2022/06/05 04:04:46;;;;;;;23.90;16.63;;;12.50;99.90;;;;;;5120661;27;20065;-71
2022/06/05 04:07:12;;;;;;;24.13;16.60;;;12.60;99.90;;;;;;5118741;27;20450;-71
2022/06/05 04:09:38;;;;;;;17.98;15.63;;;12.50;99.90;;;;;;5099125;27;20413;-71
2022/06/05 04:12:04;;;;;;;20.85;15.90;;;12.50;99.90;;;;;;5127510;27;20046;-71
2022/06/05 04:14:30;;;;;;;22.35;16.08;;;12.60;99.90;;;;;;5091373;27;20545;-71
2022/06/05 04:16:56;;;;;;;21.13;16.30;;;12.60;99.90;;;;;;5099399;27;20039;-71
2022/06/05 04:19:21;;;;;;;25.52;16.48;;;12.60;99.90;;;;;;5133572;27;20042;-71
2022/06/05 04:21:47;;;;;;;19.50;15.85;;;12.60;99.90;;;;;;5114335;27;20485;-71
2022/06/05 04:24:14;;;;;;;20.23;16.30;;;12.70;99.90;;;;;;5097517;27;20031;-71
2022/06/05 04:26:42;;;;;;;20.85;16.08;;;12.70;99.90;;;;;;5108096;27;20123;-71
2022/06/05 04:29:08;;;;;;;18.77;16.45;;;12.70;99.90;;;;;;5123140;27;20227;-71
2022/06/05 04:31:37;;;;;;;22.35;16.48;;;12.70;99.90;;;;;;5146718;27;20054;-71
2022/06/05 04:34:09;;;;;;;21.52;16.40;;;12.80;99.90;;;;;;5138635;27;20401;-71
2022/06/05 04:36:35;;;;;;;19.33;16.63;;;12.80;99.90;;;;;;5110908;27;20550;-71
2022/06/05 04:39:01;;;;;;;19.95;15.82;;;12.90;99.90;;;;;;5116931;27;20042;-71
2022/06/05 04:41:27;;;;;;;25.95;17.77;;;12.90;99.90;;;;;;5120960;27;20087;-71
2022/06/05 04:43:55;;;;;;;20.70;16.63;;;12.90;99.90;;;;;;5119651;27;20513;-71
2022/06/05 04:46:23;;;;;;;21.77;16.23;;;13.10;99.90;;;;;;5128617;27;20047;-71
2022/06/05 04:48:49;;;;;;;18.20;15.65;;;13.10;99.90;;;;;;5124804;27;20068;-72
2022/06/05 04:51:18;;;;;;;19.38;16.10;;;13.10;99.90;;;;;;5107312;27;20037;-71
2022/06/05 04:53:43;;;;;;;22.02;16.30;;;13.20;99.90;;;;;;5113913;27;20066;-71
2022/06/05 04:56:13;;;;;;;22.92;16.23;;;13.20;99.90;;;;;;5121760;27;20031;-71
2022/06/05 04:58:40;;;;;;;23.38;16.23;;;13.30;99.90;;;;;;5124853;27;20407;-71
2022/06/05 05:01:11;;;;;;;23.27;17.02;;;13.40;99.90;;;;;;5100171;27;20070;-71
2022/06/05 05:03:36;;;;;;;19.77;15.88;;;13.50;99.90;;;;;;5108756;27;20027;-71
2022/06/05 05:06:02;;;;;;;17.23;14.88;;;13.40;99.90;;;;;;5121759;27;20107;-71
2022/06/05 05:08:27;;;;;;;18.15;15.95;;;13.50;99.90;;;;;;5142725;27;20030;-71
2022/06/05 05:10:53;;;;;;;20.25;16.00;;;13.50;99.90;;;;;;5120970;27;20404;-71
2022/06/05 05:13:19;;;;;;;17.77;15.30;;;13.60;99.90;;;;;;5119608;27;20039;-71
2022/06/05 05:15:52;;;;;;;19.05;15.32;;;13.70;99.90;;;;;;5136838;27;20043;-71
2022/06/05 05:18:18;;;;;;;19.23;15.45;;;13.70;99.90;;;;;;5121877;27;20508;-71
2022/06/05 05:20:44;;;;;;;19.42;14.85;;;13.70;99.90;;;;;;5117707;27;20485;-71
2022/06/05 05:23:10;;;;;;;19.95;15.55;;;13.80;99.90;;;;;;5139421;27;20039;-71
2022/06/05 05:25:36;;;;;;;18.17;15.15;;;13.80;99.90;;;;;;5126062;27;20043;-71
2022/06/05 05:28:01;;;;;;;19.75;14.98;;;13.90;99.90;;;;;;5119233;27;20050;-71
2022/06/05 05:30:27;;;;;;;21.35;14.90;;;14.00;99.90;;;;;;5119810;27;20420;-71
2022/06/05 05:32:53;;;;;;;21.15;15.43;;;14.00;99.90;;;;;;5139214;27;20067;-71
2022/06/05 05:35:22;;;;;;;18.27;14.95;;;14.10;99.90;;;;;;5121702;27;20034;-71
2022/06/05 05:37:47;;;;;;;16.73;14.93;;;14.10;99.90;;;;;;5119193;27;20527;-71
2022/06/05 05:42:57;;;;;;;18.73;14.73;;;14.20;99.90;;;;;;5116954;27;20047;-70
2022/06/05 05:45:24;;;;;;;20.95;14.45;;;14.30;99.90;;;;;;5119735;27;20039;-71
2022/06/05 05:47:49;;;;;;;19.00;14.57;;;14.40;99.90;;;;;;5138384;27;20041;-71
2022/06/05 05:50:15;;;;;;;17.55;14.77;;;14.40;99.90;;;;;;5101056;27;20044;-71
2022/06/05 05:52:43;;;;;;;17.38;14.25;;;14.50;99.90;;;;;;5115928;27;20045;-71
2022/06/05 05:55:12;;;;;;;15.88;13.98;;;14.60;99.90;;;;;;5116910;27;20084;-70
2022/06/05 05:57:39;;;;;;;16.58;14.32;;;14.70;99.90;;;;;;5113864;27;20091;-71
2022/06/05 06:00:09;;;;;;;16.73;14.45;;;14.70;99.90;;;;;;5133483;27;20031;-71
2022/06/05 06:02:35;;;;;;;18.13;13.85;;;14.80;99.90;;;;;;5102142;27;20047;-71
2022/06/05 06:05:02;;;;;;;19.60;13.98;;;14.80;99.90;;;;;;5139999;27;20104;-71
2022/06/05 06:07:28;;;;;;;18.52;14.40;;;14.90;99.90;;;;;;5123478;27;20039;-71
2022/06/05 06:09:55;;;;;;;15.18;12.85;;;15.00;99.90;;;;;;5123902;27;20034;-71
2022/06/05 06:12:21;;;;;;;16.17;13.32;;;15.10;99.90;;;;;;5123244;27;20042;-71
2022/06/05 06:14:46;;;;;;;15.20;13.60;;;15.20;99.90;;;;;;5124290;27;20047;-71
2022/06/05 06:17:12;;;;;;;13.98;12.48;;;15.30;99.90;;;;;;5122431;27;20035;-70
2022/06/05 06:19:38;;;;;;;14.57;13.05;;;15.30;99.90;;;;;;5127826;27;20042;-70
2022/06/05 06:22:04;;;;;;;16.25;13.50;;;15.40;99.90;;;;;;5125036;27;20077;-71
2022/06/05 06:24:30;;;;;;;14.48;12.98;;;15.50;99.90;;;;;;5122704;27;20050;-71
2022/06/05 06:26:55;;;;;;;19.50;13.63;;;15.60;99.90;;;;;;5122340;27;20047;-71
2022/06/05 06:29:21;;;;;;;15.75;13.25;;;15.60;99.90;;;;;;5125234;27;20122;-71
2022/06/05 06:31:47;;;;;;;14.65;12.88;;;15.70;99.90;;;;;;5123675;27;20053;-73
2022/06/05 06:34:13;;;;;;;16.58;12.90;;;15.80;99.90;;;;;;5124672;27;20035;-72
2022/06/05 06:36:39;;;;;;;15.77;13.25;;;15.90;99.90;;;;;;5122745;27;20035;-72
2022/06/05 06:39:04;;;;;;;17.13;12.98;;;16.00;99.90;;;;;;5129421;27;20043;-72
2022/06/05 06:41:30;;;;;;;15.32;12.98;;;16.10;99.90;;;;;;5142662;27;20093;-72
2022/06/05 06:43:56;;;;;;;16.55;13.60;;;16.20;99.90;;;;;;5144897;27;20083;-72
2022/06/05 06:46:22;;;;;;;16.67;12.82;;;16.30;99.90;;;;;;5122439;27;20084;-72
2022/06/05 06:48:48;;;;;;;14.23;12.70;;;16.50;99.90;;;;;;5128429;27;20083;-72
2022/06/05 06:51:15;;;;;;;14.23;12.60;;;16.60;99.90;;;;;;5142081;27;20043;-72
2022/06/05 06:53:42;;;;;;;14.43;12.93;;;16.60;99.90;;;;;;5127546;27;20046;-72
2022/06/05 06:56:14;;;;;;;17.25;12.27;;;16.80;99.90;;;;;;5149751;27;20062;-73
2022/06/05 06:58:41;;;;;;;15.25;12.45;;;16.90;99.90;;;;;;5125121;27;20070;-72
2022/06/05 07:01:07;;;;;;;14.00;11.13;;;17.00;99.90;;;;;;5128671;27;20126;-72
2022/06/05 07:03:34;;;;;;;13.38;10.70;;;17.10;99.90;;;;;;5130316;27;20043;-72
2022/06/05 07:06:07;;;;;;;13.00;11.02;;;17.30;99.90;;;;;;5124961;27;20046;-72
2022/06/05 07:08:33;;;;;;;;;;;17.40;99.90;;;;;;5144056;27;20027;-72
2022/06/05 07:10:59;;;;;;;13.60;10.75;;;17.60;99.90;;;;;;5124691;27;19923;-73
2022/06/05 07:13:24;;;;;;;12.75;10.25;;;17.60;99.90;;;;;;5120259;27;20035;-73
2022/06/05 07:15:50;;;;;;;12.20;10.02;;;17.70;99.90;;;;;;5121337;27;20070;-73
2022/06/05 07:18:17;;;;;;;10.68;9.65;;;17.70;99.90;;;;;;5120305;27;20402;-72
2022/06/05 07:20:44;;;;;;;11.90;9.73;;;17.80;99.90;;;;;;5139788;27;20038;-73
2022/06/05 07:23:10;;;;;;;11.30;9.43;;;17.90;99.90;;;;;;5122269;27;20066;-72
2022/06/05 07:25:37;;;;;;;11.20;9.55;;;18.00;99.90;;;;;;5123528;27;20038;-72
2022/06/05 07:28:04;;;;;;;12.23;9.68;;;18.20;99.90;;;;;;5105298;27;20039;-72
2022/06/05 07:30:31;;;;;;;11.45;8.88;;;18.40;99.90;;;;;;5130829;27;20046;-72
2022/06/05 07:32:57;;;;;;;10.48;9.15;;;18.60;99.90;;;;;;5124328;27;20503;-73
2022/06/05 07:35:23;;;;;;;10.25;9.13;;;18.70;99.90;;;;;;5122264;27;20031;-73
2022/06/05 07:37:49;;;;;;;11.38;8.55;;;18.80;99.90;;;;;;5125131;27;20046;-72
2022/06/05 07:40:16;;;;;;;9.73;8.57;;;18.90;99.90;;;;;;5112266;27;20035;-72
2022/06/05 07:42:43;;;;;;;11.38;8.80;;;18.90;99.90;;;;;;5121261;27;20039;-73
2022/06/05 07:45:13;;;;;;;10.20;8.65;;;19.00;99.90;;;;;;5153105;27;20480;-72
2022/06/05 07:47:40;;;;;;;11.23;7.95;;;19.10;99.90;;;;;;5119352;27;20396;-72
2022/06/05 07:50:06;;;;;;;10.15;8.20;;;19.20;99.90;;;;;;5127418;27;20501;-72
2022/06/05 07:55:16;;;;;;;9.20;8.30;;;19.40;99.90;;;;;;5141722;27;20041;-72
2022/06/05 07:57:41;;;;;;;9.57;8.57;;;19.40;99.90;;;;;;5124461;27;20405;-72
2022/06/05 08:00:11;;;;;;;9.70;7.90;;;19.50;99.90;;;;;;5139579;27;20034;-73
2022/06/05 08:02:38;;;;;;;9.20;8.20;;;19.60;99.90;;;;;;5124869;27;20073;-73
2022/06/05 08:05:04;;;;;;;8.77;7.88;;;19.70;99.90;;;;;;5122746;27;20043;-73
2022/06/05 08:07:31;;;;;;;10.52;8.35;;;19.80;99.90;;;;;;5122962;27;20519;-73
2022/06/05 08:09:59;;;;;;;8.75;7.68;;;19.90;99.90;;;;;;5124824;27;20054;-73
2022/06/05 08:12:28;;;;;;;8.45;7.60;;;20.00;99.90;;;;;;5118788;27;20453;-73
2022/06/05 08:14:54;;;;;;;8.23;7.47;;;20.10;99.90;;;;;;5128652;27;20488;-72
2022/06/05 08:17:24;;;;;;;9.07;7.78;;;20.20;99.90;;;;;;5121766;27;20404;-72
2022/06/05 08:19:50;;;;;;;8.02;7.15;;;20.20;99.90;;;;;;5114948;27;20223;-72
2022/06/05 08:22:18;;;;;;;12.38;7.47;;;20.40;99.90;;;;;;5134681;27;20035;-74
2022/06/05 08:24:44;;;;;;;9.15;7.10;;;20.50;99.90;;;;;;5129092;27;20401;-73
2022/06/05 08:27:13;;;;;;;12.30;7.15;;;20.50;99.90;;;;;;5102225;27;20047;-72
2022/06/05 08:29:39;;;;;;;18.00;8.52;;;20.60;99.90;;;;;;5121736;27;20038;-72
2022/06/05 08:32:06;;;;;;;8.20;6.90;;;20.70;99.90;;;;;;5120289;27;20122;-72
2022/06/05 08:34:32;;;;;;;8.00;7.10;;;20.70;99.90;;;;;;5120064;27;20121;-73
2022/06/05 08:42:56;;;;;;;7.22;6.53;;;20.90;99.90;;;;;;5116086;27;20057;-72
2022/06/05 08:45:21;;;;;;;8.18;6.50;;;21.00;99.90;;;;;;5077256;27;20051;-72
2022/06/05 08:47:52;;;;;;;13.93;6.68;;;21.00;99.90;;;;;;5122541;27;20049;-72
2022/06/05 08:50:44;;;;;;;9.60;6.72;;;21.10;99.90;;;;;;5116699;27;20038;-73
2022/06/05 08:53:21;;;;;;;10.93;6.50;;;21.20;99.90;;;;;;5118242;27;20035;-72
2022/06/05 08:55:49;;;;;;;7.60;6.13;;;21.40;99.90;;;;;;5122719;27;20103;-73
2022/06/05 08:58:29;;;;;;;8.50;6.53;;;21.60;99.90;;;;;;5116350;27;20031;-72
2022/06/05 09:01:00;;;;;;;6.45;5.85;;;21.70;99.90;;;;;;5112761;27;20073;-72
2022/06/05 09:03:42;;;;;;;8.27;6.47;;;22.00;99.90;;;;;;5128916;27;20050;-73
2022/06/05 09:06:38;;;;;;;9.23;6.23;;;22.20;99.90;;;;;;5121765;27;20043;-73
2022/06/05 09:09:10;;;;;;;7.25;6.05;;;22.30;99.90;;;;;;5125991;27;20045;-73
2022/06/05 09:11:44;;;;;;;;;;;22.30;99.90;;;;;;5136235;27;20039;-72
2022/06/05 09:14:39;;;;;;;7.18;5.65;;;22.40;99.90;;;;;;5116439;27;19918;-72
2022/06/05 09:17:19;;;;;;;10.68;6.30;;;22.60;99.90;;;;;;5118224;27;20042;-73
2022/06/05 09:19:47;;;;;;;8.82;5.65;;;22.70;99.90;;;;;;5113237;27;20055;-73
2022/06/05 09:22:35;;;;;;;9.43;5.50;;;22.80;99.90;;;;;;5117349;27;20077;-73
2022/06/05 09:25:19;;;;;;;6.28;5.68;;;22.90;99.90;;;;;;5137809;27;20037;-73
2022/06/05 09:28:12;;;;;;;6.30;5.65;;;23.10;99.90;;;;;;5122296;27;20146;-72
2022/06/05 09:31:03;;;;;;;8.10;6.15;;;23.20;99.90;;;;;;5133300;27;20102;-73
2022/06/05 09:33:34;;;;;;;6.30;5.70;;;23.30;99.90;;;;;;5108557;27;20116;-73
2022/06/05 09:36:06;;;;;;;5.88;5.25;;;23.40;99.90;;;;;;5129190;27;20948;-73
2022/06/05 09:38:57;;;;;;;8.27;5.90;;;23.40;99.90;;;;;;5126696;27;20185;-73
2022/06/05 09:41:39;;;;;;;5.97;5.38;;;23.40;99.90;;;;;;5137536;27;20039;-73
2022/06/05 09:44:31;;;;;;;7.50;5.30;;;23.40;99.90;;;;;;5133327;27;20664;-73
2022/06/05 09:47:03;;;;;;;6.80;5.70;;;23.40;99.90;;;;;;5093181;27;20515;-73
2022/06/05 09:49:45;;;;;;;8.50;5.55;;;23.30;99.50;;;;;;5148650;27;20049;-73
2022/06/05 09:52:12;;;;;;;5.77;5.27;;;23.20;99.80;;;;;;5141495;27;20488;-73
2022/06/05 09:55:07;;;;;;;7.57;5.38;;;23.20;99.90;;;;;;5138240;27;20801;-73
2022/06/05 10:00:41;;;;;;;6.05;5.40;;;23.30;98.80;;;;;;5130869;27;20069;-73
2022/06/05 10:03:15;;;;;;;6.07;5.22;;;23.20;99.90;;;;;;5138127;27;20047;-73
2022/06/05 10:05:45;;;;;;;6.70;5.15;;;23.20;99.90;;;;;;5138203;27;20412;-73
2022/06/05 10:08:11;;;;;;;6.43;5.18;;;23.20;99.20;;;;;;5134244;27;20904;-73
2022/06/05 10:10:39;;;;;;;5.93;5.30;;;23.20;99.40;;;;;;5143708;27;20118;-72
2022/06/05 10:13:36;;;;;;;7.43;5.47;;;23.10;99.90;;;;;;5138116;27;20591;-73
2022/06/05 10:16:10;;;;;;;6.07;5.47;;;23.10;99.90;;;;;;5145487;27;20606;-73
2022/06/05 10:19:03;;;;;;;8.85;5.45;;;23.10;99.90;;;;;;5144871;27;20384;-73
2022/06/05 10:21:39;;;;;;;6.00;5.28;;;23.20;99.90;;;;;;5137551;27;20035;-73
2022/06/05 10:24:34;;;;;;;7.07;5.05;;;23.20;99.90;;;;;;5154997;27;20411;-73
2022/06/05 10:27:02;;;;;;;6.70;4.75;;;23.20;99.90;;;;;;5123011;27;20378;-73
2022/06/05 10:29:31;;;;;;;7.18;5.45;;;23.10;99.90;;;;;;5136292;27;20087;-73
2022/06/05 10:32:20;;;;;;;6.10;5.00;;;23.10;99.90;;;;;;5144872;27;20485;-73
2022/06/05 10:35:09;;;;;;;6.43;5.05;;;23.20;99.90;;;;;;5130432;27;20043;-73
2022/06/05 10:37:54;;;;;;;7.47;5.10;;;23.20;99.90;;;;;;5151044;27;20365;-73
2022/06/05 10:40:33;;;;;;;6.63;4.88;;;23.30;99.90;;;;;;5126861;27;20387;-73
2022/06/05 10:43:01;;;;;;;5.85;4.68;;;23.40;99.90;;;;;;5135552;27;20409;-73
2022/06/05 10:45:39;;;;;;;5.28;4.78;;;23.40;99.90;;;;;;5150379;27;20366;-73
2022/06/05 10:48:31;;;;;;;5.35;4.90;;;23.40;99.90;;;;;;5134808;27;20374;-73
2022/06/05 10:51:23;;;;;;;10.45;5.13;;;23.50;99.90;;;;;;5141821;27;20115;-73
2022/06/05 10:54:17;;;;;;;5.60;4.73;;;23.60;99.90;;;;;;5141024;27;20388;-73
2022/06/05 10:56:54;;;;;;;9.48;4.75;;;23.60;99.90;;;;;;5134485;27;20280;-73
2022/06/05 10:59:44;;;;;;;5.75;4.85;;;23.60;99.90;;;;;;5143517;27;20129;-73
2022/06/05 11:02:46;;;;;;;5.32;4.82;;;23.60;99.90;;;;;;5137006;27;20370;-73
2022/06/05 11:05:36;;;;;;;6.53;4.68;;;23.70;99.90;;;;;;5152042;27;20052;-73
2022/06/05 11:08:17;;;;;;;5.95;5.40;;;23.70;99.90;;;;;;5152947;27;20389;-73
2022/06/05 11:14:42;;;;;;;10.05;5.55;;;23.70;98.70;;;;;;5043444;28;20551;-73
2022/06/05 11:17:30;;;;;;;7.00;4.65;;;23.60;99.50;;;;;;5055745;28;20083;-74
2022/06/05 11:20:10;;;;;;;5.35;4.53;;;23.60;99.90;;;;;;5151923;27;20051;-73
2022/06/05 11:22:43;;;;;;;6.43;5.20;;;23.60;99.90;;;;;;5139419;27;20073;-73
2022/06/05 11:25:23;;;;;;;8.85;4.57;;;23.60;99.90;;;;;;5147450;27;20129;-73
2022/06/05 11:27:59;;;;;;;8.48;4.90;;;23.60;99.90;;;;;;5141299;27;20087;-73
2022/06/05 11:30:49;;;;;;;5.68;4.63;;;23.60;99.90;;;;;;5152422;27;20038;-73
2022/06/05 11:33:18;;;;;;;5.63;4.68;;;23.70;99.90;;;;;;5142447;27;20047;-73
2022/06/05 11:36:12;;;;;;;7.47;4.70;;;23.70;99.90;;;;;;5154366;27;20027;-73
2022/06/05 11:39:05;;;;;;;9.02;4.88;;;23.80;99.90;;;;;;5136039;27;20043;-73
2022/06/05 11:41:46;;;;;;;7.03;4.82;;;23.80;99.90;;;;;;5141162;27;20042;-73
2022/06/05 11:44:18;;;;;;;7.03;5.10;;;23.80;99.90;;;;;;5151821;27;20069;-73
2022/06/05 11:47:04;;;;;;;6.13;4.80;;;23.80;99.90;;;;;;5130581;27;20035;-73
2022/06/05 11:49:43;;;;;;;6.50;4.65;;;23.80;99.90;;;;;;5148231;27;20035;-73
2022/06/05 11:52:41;;;;;;;4.85;4.35;;;23.80;99.90;;;;;;5125543;27;20039;-73
2022/06/05 11:55:13;;;;;;;9.30;4.60;;;23.90;99.90;;;;;;5145088;27;20118;-73
2022/06/05 11:57:49;;;;;;;5.00;4.40;;;23.90;99.90;;;;;;5128423;27;20453;-73
2022/06/05 12:00:34;;;;;;;6.20;4.72;;;23.90;99.90;;;;;;5153075;27;20034;-73
2022/06/05 12:03:28;;;;;;;6.10;4.10;;;23.90;99.90;;;;;;5136328;27;20046;-73
2022/06/05 12:06:12;;;;;;;4.90;4.40;;;23.90;99.90;;;;;;5133307;27;20113;-74
2022/06/05 12:08:47;;;;;;;5.28;4.38;;;23.80;99.90;;;;;;5145242;27;20035;-73
2022/06/05 12:11:23;;;;;;;9.27;4.80;;;23.80;99.90;;;;;;5136066;27;20454;-73
2022/06/05 12:14:23;;;;;;;7.28;4.65;;;23.80;99.90;;;;;;5148922;27;20040;-73
2022/06/05 12:17:02;;;;;;;5.18;4.45;;;23.80;99.90;;;;;;5142257;27;20079;-73
2022/06/05 12:19:36;;;;;;;4.80;4.40;;;23.70;99.90;;;;;;5151491;27;20430;-73
2022/06/05 12:22:18;;;;;;;7.70;4.50;;;23.70;99.90;;;;;;5137764;27;20046;-73
2022/06/05 12:25:18;;;;;;;4.72;4.20;;;23.80;99.90;;;;;;5147729;27;20059;-73
2022/06/05 12:28:10;;;;;;;7.72;4.57;;;23.80;99.90;;;;;;5134290;27;20129;-74
2022/06/05 12:30:41;;;;;;;6.05;4.65;;;23.80;99.90;;;;;;5152763;27;20031;-73
2022/06/05 12:33:34;;;;;;;4.80;4.40;;;23.80;99.90;;;;;;5152544;27;20043;-73
2022/06/05 12:36:19;;;;;;;5.82;4.30;;;23.90;99.90;;;;;;5147499;27;20401;-73
2022/06/05 12:38:53;;;;;;;5.13;4.45;;;23.90;99.90;;;;;;5130742;27;20035;-73
2022/06/05 12:41:23;;;;;;;8.02;4.47;;;23.90;99.90;;;;;;5151253;27;20030;-73
2022/06/05 12:44:16;;;;;;;7.13;4.55;;;23.90;98.30;;;;;;5151977;27;20039;-73
2022/06/05 12:46:59;;;;;;;6.43;4.30;;;23.80;99.30;;;;;;5133615;27;20084;-73
2022/06/05 12:49:50;;;;;;;5.50;4.22;;;23.80;99.90;;;;;;5141667;27;20166;-73
2022/06/05 12:52:38;;;;;;;5.80;4.10;;;23.80;99.90;;;;;;5145106;27;20043;-73
2022/06/05 12:55:08;;;;;;;5.32;3.95;;;23.80;99.90;;;;;;5148569;27;20042;-74
2022/06/05 12:57:58;;;;;;;4.28;3.92;;;23.80;99.90;;;;;;5137535;27;20045;-73
2022/06/05 13:00:42;;;;;;;7.40;3.90;;;23.90;99.90;;;;;;5090473;27;20060;-73
2022/06/05 13:03:27;;;;;;;7.25;3.85;;;23.90;99.90;;;;;;5134377;27;20125;-73
2022/06/05 13:06:18;;;;;;;10.48;4.07;;;24.10;99.90;;;;;;5129989;27;20050;-73
2022/06/05 13:08:59;;;;;;;5.38;4.20;;;24.10;99.90;;;;;;5140224;27;20087;-73
2022/06/05 13:11:40;;;;;;;6.10;4.22;;;24.10;99.90;;;;;;5146177;27;20130;-74
2022/06/05 13:14:14;;;;;;;8.52;4.20;;;24.20;99.90;;;;;;5139482;27;20035;-73
2022/06/05 13:16:55;;;;;;;7.72;4.30;;;24.30;99.90;;;;;;5129255;27;20035;-73
2022/06/05 13:19:29;;;;;;;6.95;4.30;;;24.30;99.90;;;;;;5136256;27;20039;-73
2022/06/05 13:22:32;;;;;;;5.65;3.80;;;24.50;99.90;;;;;;5129462;27;20074;-73
2022/06/05 13:25:15;;;;;;;4.45;3.90;;;24.60;99.90;;;;;;5107176;27;20116;-74
2022/06/05 13:28:19;;;;;;;6.22;3.60;;;24.70;99.90;;;;;;5127619;27;20034;-74